createdAt,value
2022-11-10T00:01:19.318Z,20.00
2022-11-10T00:03:46.064Z,20.00
2022-11-10T00:06:12.823Z,20.00
2022-11-10T00:08:39.632Z,20.00
2022-11-10T00:11:07.056Z,20.00
2022-11-10T00:13:35.991Z,20.00
2022-11-10T00:16:22.167Z,20.00
2022-11-10T00:18:48.982Z,20.00
2022-11-10T00:21:16.337Z,20.00
2022-11-10T00:23:43.254Z,20.00
2022-11-10T00:26:16.131Z,20.00
2022-11-10T00:28:42.913Z,20.00
2022-11-10T00:31:09.816Z,20.00
2022-11-10T00:33:37.512Z,20.00
2022-11-10T00:36:04.920Z,19.90
2022-11-10T00:38:31.690Z,20.00
2022-11-10T00:40:59.971Z,19.90
2022-11-10T00:43:27.479Z,19.90
2022-11-10T00:45:54.537Z,20.00
2022-11-10T00:48:21.267Z,19.90
2022-11-10T00:50:47.997Z,19.90
2022-11-10T00:53:14.760Z,19.90
2022-11-10T00:55:42.056Z,19.90
2022-11-10T00:58:08.933Z,19.90
2022-11-10T01:00:35.700Z,19.90
2022-11-10T01:03:02.675Z,19.90
2022-11-10T01:05:30.317Z,19.90
2022-11-10T01:07:59.775Z,19.90
2022-11-10T01:10:26.968Z,19.90
2022-11-10T01:12:53.819Z,19.90
2022-11-10T01:15:24.498Z,19.90
2022-11-10T01:17:54.651Z,19.90
2022-11-10T01:20:21.551Z,19.90
2022-11-10T01:22:48.257Z,19.90
2022-11-10T01:25:15.019Z,19.90
2022-11-10T01:27:41.734Z,19.90
2022-11-10T01:30:08.744Z,19.80
2022-11-10T01:32:35.495Z,19.90
2022-11-10T01:35:02.228Z,19.90
2022-11-10T01:37:28.993Z,19.90
2022-11-10T01:39:55.778Z,19.90
2022-11-10T01:42:38.428Z,19.90
2022-11-10T01:45:48.787Z,19.90
2022-11-10T01:48:19.324Z,19.80
2022-11-10T01:50:46.024Z,19.80
2022-11-10T01:53:16.324Z,19.80
2022-11-10T01:55:43.583Z,19.90
2022-11-10T01:58:11.328Z,19.80
2022-11-10T02:00:38.074Z,19.80
2022-11-10T02:03:18.256Z,19.80
2022-11-10T02:05:45.027Z,19.80
2022-11-10T02:08:14.024Z,19.80
2022-11-10T02:10:40.767Z,19.80
2022-11-10T02:13:07.477Z,19.80
2022-11-10T02:15:34.173Z,19.80
2022-11-10T02:18:00.887Z,19.80
2022-11-10T02:20:27.589Z,19.80
2022-11-10T02:22:54.375Z,19.80
2022-11-10T02:25:21.895Z,19.80
2022-11-10T02:27:48.645Z,19.80
2022-11-10T02:30:15.881Z,19.80
2022-11-10T02:32:42.896Z,19.80
2022-11-10T02:35:09.700Z,19.80
2022-11-10T02:37:36.477Z,19.80
2022-11-10T02:40:03.637Z,19.80
2022-11-10T02:42:30.394Z,19.80
2022-11-10T02:44:57.209Z,19.80
2022-11-10T02:47:23.936Z,19.70
2022-11-10T02:49:50.702Z,19.80
2022-11-10T02:52:17.594Z,19.80
2022-11-10T02:54:44.293Z,19.80
2022-11-10T02:57:11.046Z,19.80
2022-11-10T02:59:37.848Z,19.80
2022-11-10T03:02:04.542Z,19.80
2022-11-10T03:04:31.289Z,19.80
2022-11-10T03:06:58.135Z,19.70
2022-11-10T03:09:24.934Z,19.70
2022-11-10T03:11:51.699Z,19.70
2022-11-10T03:14:18.797Z,19.80
2022-11-10T03:16:45.495Z,19.80
2022-11-10T03:19:12.214Z,19.80
2022-11-10T03:21:38.917Z,19.70
2022-11-10T03:24:05.935Z,19.70
2022-11-10T03:26:32.636Z,19.70
2022-11-10T03:28:59.344Z,19.70
2022-11-10T03:31:26.080Z,19.70
2022-11-10T03:33:52.791Z,19.70
2022-11-10T03:36:19.700Z,19.70
2022-11-10T03:38:46.405Z,19.70
2022-11-10T03:41:19.257Z,19.70
2022-11-10T03:43:47.685Z,19.70
2022-11-10T03:46:14.402Z,19.70
2022-11-10T03:48:41.115Z,19.70
2022-11-10T03:51:07.881Z,19.70
2022-11-10T03:53:34.633Z,19.70
2022-11-10T03:56:02.249Z,19.70
2022-11-10T03:58:28.959Z,19.70
2022-11-10T04:00:55.991Z,19.70
2022-11-10T04:03:23.258Z,19.70
2022-11-10T04:06:09.024Z,19.70
2022-11-10T04:08:54.000Z,19.70
2022-11-10T04:11:39.435Z,19.70
2022-11-10T04:14:24.742Z,19.70
2022-11-10T04:16:51.481Z,19.70
2022-11-10T04:19:18.180Z,19.70
2022-11-10T04:21:44.887Z,19.70
2022-11-10T04:24:11.675Z,19.70
2022-11-10T04:26:38.974Z,19.70
2022-11-10T04:29:08.687Z,19.70
2022-11-10T04:31:37.468Z,19.70
2022-11-10T04:34:08.438Z,19.70
2022-11-10T04:36:36.524Z,19.60
2022-11-10T04:39:03.897Z,19.70
2022-11-10T04:41:30.689Z,19.70
2022-11-10T04:43:58.035Z,19.60
2022-11-10T04:46:31.636Z,19.70
2022-11-10T04:48:58.575Z,19.60
2022-11-10T04:51:30.201Z,19.70
2022-11-10T04:53:57.096Z,19.70
2022-11-10T04:56:24.453Z,19.70
2022-11-10T04:58:51.346Z,19.60
2022-11-10T05:01:19.871Z,19.60
2022-11-10T05:03:46.855Z,19.60
2022-11-10T05:06:13.706Z,19.60
2022-11-10T05:08:42.087Z,19.60
2022-11-10T05:11:09.074Z,19.60
2022-11-10T05:13:35.828Z,19.60
2022-11-10T05:16:02.673Z,19.60
2022-11-10T05:18:29.490Z,19.60
2022-11-10T05:20:56.888Z,19.60
2022-11-10T05:23:38.773Z,19.60
2022-11-10T05:26:15.960Z,19.60
2022-11-10T05:28:44.127Z,19.60
2022-11-10T05:31:11.203Z,19.60
2022-11-10T05:33:38.157Z,19.60
2022-11-10T05:36:05.862Z,19.60
2022-11-10T05:38:33.143Z,19.60
2022-11-10T05:40:59.894Z,19.60
2022-11-10T05:43:29.880Z,19.60
2022-11-10T05:45:58.207Z,19.60
2022-11-10T05:48:25.177Z,19.60
2022-11-10T05:50:52.206Z,19.60
2022-11-10T05:53:19.137Z,19.60
2022-11-10T05:55:46.039Z,19.60
2022-11-10T05:58:12.788Z,19.60
2022-11-10T06:00:39.585Z,19.60
2022-11-10T06:03:07.820Z,19.60
2022-11-10T06:05:35.304Z,19.60
2022-11-10T06:08:02.897Z,19.60
2022-11-10T06:10:29.739Z,19.60
2022-11-10T06:12:56.480Z,19.60
2022-11-10T06:15:23.362Z,19.60
2022-11-10T06:17:50.217Z,19.60
2022-11-10T06:20:17.666Z,19.50
2022-11-10T06:22:45.218Z,19.60
2022-11-10T06:25:11.945Z,19.60
2022-11-10T06:27:38.773Z,19.60
2022-11-10T06:30:06.000Z,19.60
2022-11-10T06:32:34.262Z,19.50
2022-11-10T06:35:01.171Z,19.60
2022-11-10T06:37:27.958Z,19.60
2022-11-10T06:39:54.678Z,19.60
2022-11-10T06:42:21.427Z,19.50
2022-11-10T06:44:48.145Z,19.50
2022-11-10T06:47:16.016Z,19.50
2022-11-10T06:49:42.729Z,19.50
2022-11-10T06:52:09.455Z,19.50
2022-11-10T06:54:36.185Z,19.50
2022-11-10T06:57:02.926Z,19.50
2022-11-10T06:59:29.650Z,19.50
2022-11-10T07:01:56.364Z,19.50
2022-11-10T07:04:23.172Z,19.50
2022-11-10T07:06:49.924Z,19.50
2022-11-10T07:09:16.680Z,19.50
2022-11-10T07:11:43.476Z,19.50
2022-11-10T07:14:10.249Z,19.50
2022-11-10T07:16:37.052Z,19.50
2022-11-10T07:19:04.586Z,19.50
2022-11-10T07:21:32.349Z,19.50
2022-11-10T07:23:59.049Z,19.50
2022-11-10T07:26:25.754Z,19.50
2022-11-10T07:28:52.522Z,19.50
2022-11-10T07:31:19.229Z,19.50
2022-11-10T07:33:51.920Z,19.50
2022-11-10T07:36:21.570Z,19.50
2022-11-10T07:38:48.333Z,19.50
2022-11-10T07:41:15.043Z,19.50
2022-11-10T07:43:41.747Z,19.50
2022-11-10T07:46:09.347Z,19.40
2022-11-10T07:48:36.086Z,19.50
2022-11-10T07:51:02.798Z,19.50
2022-11-10T07:53:29.922Z,19.50
2022-11-10T07:55:57.926Z,19.50
2022-11-10T07:58:24.634Z,19.50
2022-11-10T08:00:51.367Z,19.50
2022-11-10T08:03:20.040Z,19.50
2022-11-10T08:05:47.058Z,19.50
2022-11-10T08:08:13.788Z,19.50
2022-11-10T08:10:40.938Z,19.50
2022-11-10T08:13:09.035Z,19.50
2022-11-10T08:15:36.738Z,19.50
2022-11-10T08:18:23.705Z,19.60
2022-11-10T08:20:50.608Z,19.60
2022-11-10T08:23:17.961Z,19.50
2022-11-10T08:25:44.729Z,19.60
2022-11-10T08:28:13.182Z,19.60
2022-11-10T08:30:41.077Z,19.60
2022-11-10T08:33:08.487Z,19.60
2022-11-10T08:35:37.502Z,19.60
2022-11-10T08:38:11.610Z,19.60
2022-11-10T08:40:38.943Z,19.60
2022-11-10T08:43:09.315Z,19.60
2022-11-10T08:45:37.102Z,19.60
2022-11-10T08:48:10.984Z,19.60
2022-11-10T08:50:37.815Z,19.60
2022-11-10T08:53:09.962Z,19.60
2022-11-10T08:55:36.713Z,19.60
2022-11-10T08:58:04.737Z,19.60
2022-11-10T09:00:31.902Z,19.60
2022-11-10T09:03:12.134Z,19.60
2022-11-10T09:05:38.918Z,19.60
2022-11-10T09:08:06.474Z,19.70
2022-11-10T09:10:36.527Z,19.60
2022-11-10T09:13:04.783Z,19.60
2022-11-10T09:15:32.486Z,19.70
2022-11-10T09:18:00.054Z,19.70
2022-11-10T09:20:28.139Z,19.60
2022-11-10T09:22:54.954Z,19.70
2022-11-10T09:25:22.000Z,19.70
2022-11-10T09:27:48.771Z,19.70
2022-11-10T09:30:18.002Z,19.70
2022-11-10T09:32:46.755Z,19.70
2022-11-10T09:35:13.805Z,19.70
2022-11-10T09:37:40.696Z,19.70
2022-11-10T09:40:12.855Z,19.70
2022-11-10T09:42:40.580Z,19.70
2022-11-10T09:45:26.891Z,19.70
2022-11-10T09:48:25.827Z,19.70
2022-11-10T09:51:18.405Z,19.70
2022-11-10T09:53:48.559Z,19.70
2022-11-10T09:56:33.744Z,19.70
2022-11-10T09:59:01.158Z,19.70
2022-11-10T10:01:36.524Z,19.70
2022-11-10T10:04:11.232Z,19.80
2022-11-10T10:07:04.881Z,19.80
2022-11-10T10:09:47.621Z,19.80
2022-11-10T10:12:17.368Z,19.80
2022-11-10T10:15:02.858Z,19.80
2022-11-10T10:17:41.005Z,19.80
2022-11-10T10:20:20.540Z,20.00
2022-11-10T10:22:55.878Z,20.00
2022-11-10T10:25:23.523Z,20.00
2022-11-10T10:27:56.376Z,20.00
2022-11-10T10:30:23.147Z,20.00
2022-11-10T10:32:51.634Z,20.00
2022-11-10T10:35:18.697Z,20.10
2022-11-10T10:37:56.076Z,20.10
2022-11-10T10:40:23.571Z,20.10
2022-11-10T10:42:50.514Z,20.10
2022-11-10T10:45:24.670Z,20.10
2022-11-10T10:47:53.063Z,20.10
2022-11-10T10:50:28.742Z,20.20
2022-11-10T10:53:15.170Z,20.20
2022-11-10T10:55:49.402Z,20.20
2022-11-10T10:58:23.262Z,20.20
2022-11-10T11:01:19.378Z,20.20
2022-11-10T11:03:47.498Z,20.20
2022-11-10T11:06:17.063Z,20.20
2022-11-10T11:08:59.502Z,20.30
2022-11-10T11:11:32.030Z,20.30
2022-11-10T11:14:31.351Z,20.30
2022-11-10T11:16:58.051Z,20.20
2022-11-10T11:19:32.182Z,20.30
2022-11-10T11:22:19.559Z,20.30
2022-11-10T11:25:07.702Z,20.30
2022-11-10T11:27:38.146Z,20.30
2022-11-10T11:30:10.085Z,20.30
2022-11-10T11:33:13.792Z,20.30
2022-11-10T11:35:59.105Z,20.30
2022-11-10T11:38:36.330Z,20.30
2022-11-10T11:41:41.440Z,20.30
2022-11-10T11:44:11.039Z,20.30
2022-11-10T11:46:49.272Z,20.30
2022-11-10T11:49:37.092Z,20.30
2022-11-10T11:52:21.742Z,20.30
2022-11-10T11:55:05.294Z,20.30
2022-11-10T11:57:50.272Z,20.30
2022-11-10T12:00:18.338Z,20.30
2022-11-10T12:03:09.804Z,20.30
2022-11-10T12:05:51.477Z,20.30
2022-11-10T12:08:21.280Z,20.30
2022-11-10T12:10:57.952Z,20.30
2022-11-10T12:13:38.497Z,20.30
2022-11-10T12:16:36.016Z,20.40
2022-11-10T12:19:21.088Z,20.40
2022-11-10T12:22:06.706Z,20.40
2022-11-10T12:24:40.386Z,20.40
2022-11-10T12:27:12.297Z,20.40
2022-11-10T12:29:47.660Z,20.40
2022-11-10T12:32:20.522Z,20.40
2022-11-10T12:35:23.760Z,20.40
2022-11-10T12:38:11.934Z,20.40
2022-11-10T12:41:03.019Z,20.40
2022-11-10T12:43:34.522Z,20.40
2022-11-10T12:46:06.039Z,20.40
2022-11-10T12:48:47.744Z,20.40
2022-11-10T12:51:21.692Z,20.40
2022-11-10T12:53:48.476Z,20.40
2022-11-10T12:56:30.225Z,20.40
2022-11-10T12:59:16.137Z,20.50
2022-11-10T13:01:43.607Z,20.40
2022-11-10T13:04:16.342Z,20.50
2022-11-10T13:06:50.823Z,20.40
2022-11-10T13:09:37.995Z,20.50
2022-11-10T13:12:19.046Z,20.40
2022-11-10T13:14:46.419Z,20.40
2022-11-10T13:17:28.458Z,20.40
2022-11-10T13:20:09.531Z,20.40
2022-11-10T13:22:47.235Z,20.40
2022-11-10T13:25:37.555Z,20.40
2022-11-10T13:28:05.928Z,20.50
2022-11-10T13:30:52.805Z,20.40
2022-11-10T13:33:25.723Z,20.40
2022-11-10T13:35:56.579Z,20.50
2022-11-10T13:38:32.086Z,20.40
2022-11-10T13:41:17.228Z,20.40
2022-11-10T13:43:53.793Z,20.40
2022-11-10T13:46:21.963Z,20.40
2022-11-10T13:49:14.327Z,20.40
2022-11-10T13:51:55.627Z,20.40
2022-11-10T13:54:31.351Z,20.40
2022-11-10T13:57:01.160Z,20.40
2022-11-10T13:59:30.094Z,20.40
2022-11-10T14:02:39.918Z,20.50
2022-11-10T14:05:09.147Z,20.50
2022-11-10T14:07:39.674Z,20.50
2022-11-10T14:10:12.131Z,20.60
2022-11-10T14:12:45.965Z,20.60
2022-11-10T14:15:20.430Z,20.60
2022-11-10T14:17:48.603Z,20.40
2022-11-10T14:20:26.050Z,20.40
2022-11-10T14:22:52.934Z,20.40
2022-11-10T14:25:22.456Z,20.40
2022-11-10T14:27:51.520Z,20.40
2022-11-10T14:30:25.776Z,20.50
2022-11-10T14:33:03.369Z,20.50
2022-11-10T14:35:31.798Z,20.50
2022-11-10T14:37:59.888Z,20.50
2022-11-10T14:40:28.247Z,20.60
2022-11-10T14:42:55.249Z,20.60
2022-11-10T14:45:28.882Z,20.60
2022-11-10T14:47:57.210Z,20.60
2022-11-10T14:50:25.077Z,20.60
2022-11-10T14:53:03.236Z,20.60
2022-11-10T14:55:31.421Z,20.60
2022-11-10T14:58:22.673Z,20.70
2022-11-10T15:00:49.789Z,20.70
2022-11-10T15:03:22.828Z,20.70
2022-11-10T15:05:49.619Z,20.70
2022-11-10T15:08:16.995Z,20.70
2022-11-10T15:10:48.547Z,20.70
2022-11-10T15:13:27.830Z,20.80
2022-11-10T15:16:26.953Z,20.80
2022-11-10T15:18:55.471Z,20.80
2022-11-10T15:21:29.875Z,20.80
2022-11-10T15:23:57.807Z,20.80
2022-11-10T15:26:26.392Z,20.80
2022-11-10T15:28:53.334Z,20.80
2022-11-10T15:31:30.977Z,20.80
2022-11-10T15:34:02.389Z,20.80
2022-11-10T15:36:34.621Z,20.80
2022-11-10T15:39:06.208Z,20.90
2022-11-10T15:41:34.373Z,20.80
2022-11-10T15:44:23.326Z,20.80
2022-11-10T15:46:54.477Z,20.80
2022-11-10T15:49:38.811Z,20.80
2022-11-10T15:52:12.165Z,20.80
2022-11-10T15:54:40.396Z,20.80
2022-11-10T15:57:12.212Z,20.80
2022-11-10T15:59:40.490Z,20.80
2022-11-10T16:02:18.002Z,20.80
2022-11-10T16:04:44.705Z,20.80
2022-11-10T16:07:11.612Z,20.80
2022-11-10T16:09:38.892Z,20.70
2022-11-10T16:12:06.475Z,20.80
2022-11-10T16:14:33.202Z,20.80
2022-11-10T16:16:59.930Z,20.80
2022-11-10T16:19:26.950Z,20.80
2022-11-10T16:21:54.155Z,20.70
2022-11-10T16:24:21.014Z,20.70
2022-11-10T16:26:47.764Z,20.70
2022-11-10T16:29:14.801Z,20.70
2022-11-10T16:31:41.554Z,20.70
2022-11-10T16:34:12.667Z,20.70
2022-11-10T16:36:41.651Z,20.70
2022-11-10T16:39:14.391Z,20.70
2022-11-10T16:41:44.173Z,20.70
2022-11-10T16:44:14.618Z,20.70
2022-11-10T16:46:42.581Z,20.70
2022-11-10T16:49:21.230Z,20.70
2022-11-10T16:51:49.248Z,20.70
2022-11-10T16:54:16.448Z,20.60
2022-11-10T16:56:43.179Z,20.60
2022-11-10T16:59:11.597Z,20.60
2022-11-10T17:01:40.707Z,20.60
2022-11-10T17:04:11.692Z,20.60
2022-11-10T17:06:38.775Z,20.60
2022-11-10T17:09:19.340Z,20.60
2022-11-10T17:11:46.161Z,20.60
2022-11-10T17:14:13.922Z,20.50
2022-11-10T17:16:45.999Z,20.60
2022-11-10T17:19:20.794Z,20.60
2022-11-10T17:21:48.413Z,20.50
2022-11-10T17:24:15.486Z,20.60
2022-11-10T17:26:42.855Z,20.50
2022-11-10T17:29:22.078Z,20.50
2022-11-10T17:31:50.394Z,20.50
2022-11-10T17:34:18.357Z,20.50
2022-11-10T17:36:45.090Z,20.50
2022-11-10T17:39:14.904Z,20.50
2022-11-10T17:41:41.684Z,20.50
2022-11-10T17:44:15.663Z,20.50
2022-11-10T17:46:42.893Z,20.40
2022-11-10T17:49:10.932Z,20.40
2022-11-10T17:51:37.706Z,20.40
2022-11-10T17:54:08.811Z,20.40
2022-11-10T17:56:35.862Z,20.40
2022-11-10T17:59:02.599Z,20.40
2022-11-10T18:01:29.354Z,20.40
2022-11-10T18:03:56.108Z,20.40
2022-11-10T18:06:22.829Z,20.40
2022-11-10T18:08:49.564Z,20.40
2022-11-10T18:11:17.906Z,20.40
2022-11-10T18:13:44.682Z,20.40
2022-11-10T18:16:12.807Z,20.40
2022-11-10T18:18:40.905Z,20.30
2022-11-10T18:21:08.992Z,20.30
2022-11-10T18:23:36.031Z,20.40
2022-11-10T18:26:06.967Z,20.40
2022-11-10T18:28:34.441Z,20.40
2022-11-10T18:31:12.695Z,20.30
2022-11-10T18:33:40.684Z,20.40
2022-11-10T18:36:09.695Z,20.40
2022-11-10T18:38:36.775Z,20.40
2022-11-10T18:41:22.759Z,20.30
2022-11-10T18:43:49.530Z,20.30
2022-11-10T18:46:16.453Z,20.40
2022-11-10T18:48:45.263Z,20.30
2022-11-10T18:51:12.186Z,20.40
2022-11-10T18:53:38.915Z,20.40
2022-11-10T18:56:05.801Z,20.40
2022-11-10T18:58:32.611Z,20.30
2022-11-10T19:01:09.343Z,20.40
2022-11-10T19:03:36.870Z,20.40
2022-11-10T19:06:03.801Z,20.40
2022-11-10T19:08:30.532Z,20.30
2022-11-10T19:10:57.561Z,20.30
2022-11-10T19:13:24.718Z,20.30
2022-11-10T19:15:51.727Z,20.40
2022-11-10T19:18:18.454Z,20.40
2022-11-10T19:20:45.152Z,20.40
2022-11-10T19:23:13.442Z,20.30
2022-11-10T19:25:40.169Z,20.30
2022-11-10T19:28:12.052Z,20.30
2022-11-10T19:30:39.087Z,20.30
2022-11-10T19:33:05.907Z,20.30
2022-11-10T19:35:33.193Z,20.30
2022-11-10T19:37:59.956Z,20.30
2022-11-10T19:40:29.683Z,20.30
2022-11-10T19:42:56.441Z,20.30
2022-11-10T19:45:23.208Z,20.30
2022-11-10T19:47:49.926Z,20.30
2022-11-10T19:50:16.677Z,20.30
2022-11-10T19:52:45.449Z,20.30
2022-11-10T19:55:12.190Z,20.30
2022-11-10T19:57:38.939Z,20.40
2022-11-10T20:00:06.984Z,20.30
2022-11-10T20:02:33.721Z,20.40
2022-11-10T20:05:13.828Z,20.30
2022-11-10T20:07:59.379Z,20.40
2022-11-10T20:10:26.168Z,20.30
2022-11-10T20:12:52.897Z,20.30
2022-11-10T20:15:19.633Z,20.30
2022-11-10T20:17:46.410Z,20.30
2022-11-10T20:20:13.830Z,20.30
2022-11-10T20:22:42.063Z,20.30
2022-11-10T20:25:09.074Z,20.30
2022-11-10T20:27:35.826Z,20.30
2022-11-10T20:30:02.550Z,20.30
2022-11-10T20:32:29.293Z,20.30
2022-11-10T20:34:56.137Z,20.30
2022-11-10T20:37:22.902Z,20.30
2022-11-10T20:39:49.636Z,20.30
2022-11-10T20:42:16.367Z,20.30
2022-11-10T20:44:43.365Z,20.30
2022-11-10T20:47:10.116Z,20.30
2022-11-10T20:49:36.873Z,20.30
2022-11-10T20:52:03.647Z,20.30
2022-11-10T20:54:30.423Z,20.30
2022-11-10T20:56:57.139Z,20.20
2022-11-10T20:59:23.900Z,20.20
2022-11-10T21:01:50.704Z,20.20
2022-11-10T21:04:18.081Z,20.20
2022-11-10T21:06:45.991Z,20.20
2022-11-10T21:09:13.750Z,20.20
2022-11-10T21:12:00.201Z,20.20
2022-11-10T21:14:27.039Z,20.20
2022-11-10T21:16:53.766Z,20.20
2022-11-10T21:19:20.481Z,20.20
2022-11-10T21:21:47.248Z,20.20
2022-11-10T21:24:15.111Z,20.20
2022-11-10T21:26:42.055Z,20.20
2022-11-10T21:29:08.954Z,20.20
2022-11-10T21:31:35.742Z,20.10
2022-11-10T21:34:02.501Z,20.10
2022-11-10T21:36:29.844Z,20.10
2022-11-10T21:38:57.417Z,20.10
2022-11-10T21:41:24.444Z,20.10
2022-11-10T21:43:51.577Z,20.10
2022-11-10T21:46:18.860Z,20.10
2022-11-10T21:48:46.571Z,20.10
2022-11-10T21:51:14.307Z,20.10
2022-11-10T21:53:41.952Z,20.10
2022-11-10T21:56:09.746Z,20.00
2022-11-10T21:58:36.972Z,20.10
2022-11-10T22:01:07.434Z,20.00
2022-11-10T22:03:34.544Z,20.00
2022-11-10T22:06:17.813Z,20.00
2022-11-10T22:08:45.731Z,20.00
2022-11-10T22:11:38.334Z,20.00
2022-11-10T22:14:34.984Z,20.00
2022-11-10T22:17:20.510Z,20.00
2022-11-10T22:19:48.017Z,20.00
2022-11-10T22:22:14.949Z,19.90
2022-11-10T22:24:41.990Z,19.90
2022-11-10T22:27:08.793Z,19.90
2022-11-10T22:29:35.622Z,19.90
2022-11-10T22:32:02.567Z,19.90
2022-11-10T22:34:29.318Z,19.90
2022-11-10T22:36:56.264Z,19.90
2022-11-10T22:39:22.977Z,19.90
2022-11-10T22:42:08.544Z,19.90
2022-11-10T22:44:35.260Z,19.90
2022-11-10T22:47:01.963Z,19.90
2022-11-10T22:49:28.677Z,19.80
2022-11-10T22:51:55.480Z,19.80
2022-11-10T22:54:24.201Z,19.80
2022-11-10T22:56:51.497Z,19.80
2022-11-10T22:59:18.466Z,19.80
2022-11-10T23:01:45.304Z,19.80
2022-11-10T23:04:12.159Z,19.80
2022-11-10T23:06:39.031Z,19.80
2022-11-10T23:09:06.135Z,19.80
2022-11-10T23:11:32.988Z,19.80
2022-11-10T23:13:59.755Z,19.80
2022-11-10T23:16:28.559Z,19.70
2022-11-10T23:18:56.119Z,19.80
2022-11-10T23:21:25.277Z,19.70
2022-11-10T23:23:53.625Z,19.70
2022-11-10T23:26:28.747Z,19.70
2022-11-10T23:28:55.626Z,19.70
2022-11-10T23:31:24.074Z,19.70
2022-11-10T23:33:52.732Z,19.70
2022-11-10T23:36:19.892Z,19.70
2022-11-10T23:38:48.693Z,19.70
2022-11-10T23:41:19.982Z,19.70
2022-11-10T23:43:47.470Z,19.70
2022-11-10T23:46:14.281Z,19.70
2022-11-10T23:48:41.325Z,19.70
2022-11-10T23:51:09.597Z,19.70
2022-11-10T23:53:36.341Z,19.70
2022-11-10T23:56:04.804Z,19.70
2022-11-10T23:58:31.768Z,19.70
